createdAt,value
2016-02-17T00:02:14.844Z,1033.12
2016-02-17T00:05:30.900Z,1033.06
2016-02-17T00:08:35.082Z,1032.96
2016-02-17T00:11:48.232Z,1033.1
2016-02-17T00:14:59.630Z,1032.98
2016-02-17T00:18:11.356Z,1032.7
2016-02-17T00:21:28.427Z,1032.6
2016-02-17T00:24:36.547Z,1032.6
2016-02-17T00:27:40.650Z,1032.76
2016-02-17T00:30:51.427Z,1032.52
2016-02-17T00:34:04.592Z,1032.42
2016-02-17T00:37:17.507Z,1032.38
2016-02-17T00:40:34.014Z,1032.44
2016-02-17T00:43:38.197Z,1032.36
2016-02-17T00:46:49.409Z,1032.52
2016-02-17T00:49:59.229Z,1032.29
2016-02-17T00:53:09.189Z,1032.09
2016-02-17T00:56:19.151Z,1032.36
2016-02-17T00:59:35.550Z,1032.33
2016-02-17T01:02:38.749Z,1032.33
2016-02-17T01:05:52.740Z,1032.54
2016-02-17T01:09:05.186Z,1032.36
2016-02-17T01:12:17.913Z,1032.31
2016-02-17T01:15:34.562Z,1032.15
2016-02-17T01:18:39.198Z,1032.36
2016-02-17T01:21:51.986Z,1032.4
2016-02-17T01:25:03.636Z,1032.09
2016-02-17T01:28:15.050Z,1032.33
2016-02-17T01:31:31.917Z,1032.07
2016-02-17T01:34:35.988Z,1032.05
2016-02-17T01:37:49.030Z,1032.05
2016-02-17T01:41:01.772Z,1031.81
2016-02-17T01:44:11.921Z,1031.99
2016-02-17T01:47:28.804Z,1032.03
2016-02-17T01:50:32.953Z,1031.97
2016-02-17T01:53:46.026Z,1031.99
2016-02-17T01:56:56.675Z,1031.71
2016-02-17T02:00:07.058Z,1031.71
2016-02-17T02:03:17.144Z,1031.57
2016-02-17T02:06:30.746Z,1031.65
2016-02-17T02:09:34.879Z,1031.41
2016-02-17T02:12:45.202Z,1031.51
2016-02-17T02:15:57.820Z,1031.37
2016-02-17T02:19:08.562Z,1031.59
2016-02-17T02:22:21.289Z,1031.55
2016-02-17T02:25:34.095Z,1031.21
2016-02-17T02:28:46.840Z,1031.31
2016-02-17T02:31:58.957Z,1031.07
2016-02-17T02:35:11.606Z,1031.17
2016-02-17T02:38:21.083Z,1031.19
2016-02-17T02:41:35.091Z,1031.09
2016-02-17T02:44:38.927Z,1030.93
2016-02-17T02:47:50.766Z,1031.15
2016-02-17T02:50:59.961Z,1031.09
2016-02-17T02:54:10.298Z,1030.87
2016-02-17T02:57:22.166Z,1030.77
2016-02-17T03:00:33.189Z,1030.67
2016-02-17T03:03:45.918Z,1030.83
2016-02-17T03:06:58.567Z,1030.65
2016-02-17T03:10:10.762Z,1030.44
2016-02-17T03:13:22.442Z,1030.61
2016-02-17T03:16:35.201Z,1030.55
2016-02-17T03:19:47.711Z,1030.34
2016-02-17T03:22:57.719Z,1030.34
2016-02-17T03:26:10.055Z,1030.36
2016-02-17T03:29:22.423Z,1030.34
2016-02-17T03:32:34.557Z,1030.46
2016-02-17T03:35:46.707Z,1030.28
2016-02-17T03:38:55.700Z,1030.44
2016-02-17T03:42:08.442Z,1030.36
2016-02-17T03:45:17.435Z,1030.26
2016-02-17T03:48:30.349Z,1030.24
2016-02-17T03:51:32.122Z,1030.16
2016-02-17T03:54:45.415Z,1030.22
2016-02-17T03:57:55.845Z,1030.32
2016-02-17T04:01:07.854Z,1030.02
2016-02-17T04:04:19.627Z,1030.22
2016-02-17T04:07:32.837Z,1030.28
2016-02-17T04:10:35.737Z,1030.2
2016-02-17T04:13:47.528Z,1030
2016-02-17T04:16:59.333Z,1029.86
2016-02-17T04:20:11.216Z,1030.06
2016-02-17T04:23:23.069Z,1029.94
2016-02-17T04:26:34.530Z,1029.82
2016-02-17T04:29:43.959Z,1030.04
2016-02-17T04:32:55.674Z,1029.84
2016-02-17T04:36:07.572Z,1029.72
2016-02-17T04:39:17.424Z,1029.84
2016-02-17T04:42:29.541Z,1029.92
2016-02-17T04:45:36.283Z,1029.42
2016-02-17T04:48:39.058Z,1029.48
2016-02-17T04:51:50.381Z,1029.54
2016-02-17T04:54:59.936Z,1029.26
2016-02-17T04:58:10.693Z,1029.28
2016-02-17T05:01:21.483Z,1029.34
2016-02-17T05:04:33.288Z,1029.06
2016-02-17T05:07:35.202Z,1029.16
2016-02-17T05:10:43.914Z,1029.08
2016-02-17T05:13:53.986Z,1029.1
2016-02-17T05:17:01.745Z,1029.01
2016-02-17T05:20:10.300Z,1029.01
2016-02-17T05:23:20.761Z,1029.08
2016-02-17T05:26:35.644Z,1028.82
2016-02-17T05:29:37.293Z,1029.05
2016-02-17T05:32:48.269Z,1028.8
2016-02-17T05:35:58.687Z,1028.8
2016-02-17T05:39:09.242Z,1028.53
2016-02-17T05:42:19.703Z,1028.8
2016-02-17T05:45:34.414Z,1028.59
2016-02-17T05:48:36.047Z,1029.03
2016-02-17T05:51:47.149Z,1028.45
2016-02-17T05:54:58.331Z,1028.53
2016-02-17T05:58:06.621Z,1028.35
2016-02-17T06:01:17.598Z,1028.6
2016-02-17T06:04:32.512Z,1028.59
2016-02-17T06:07:34.630Z,1028.59
2016-02-17T06:10:44.106Z,1028.33
2016-02-17T06:13:55.133Z,1028.25
2016-02-17T06:17:03.031Z,1028.23
2016-02-17T06:20:13.618Z,1028.39
2016-02-17T06:23:28.564Z,1028.47
2016-02-17T06:26:34.634Z,1028.33
2016-02-17T06:29:36.766Z,1028.31
2016-02-17T06:32:47.681Z,1028.43
2016-02-17T06:35:56.910Z,1028.39
2016-02-17T06:39:08.122Z,1028.29
2016-02-17T06:42:15.958Z,1028.23
2016-02-17T06:45:31.294Z,1027.87
2016-02-17T06:48:33.740Z,1027.95
2016-02-17T06:51:45.045Z,1027.85
2016-02-17T06:54:56.208Z,1027.73
2016-02-17T06:58:05.579Z,1027.67
2016-02-17T07:01:16.712Z,1027.61
2016-02-17T07:04:30.173Z,1027.61
2016-02-17T07:07:36.604Z,1027.51
2016-02-17T07:10:39.018Z,1027.61
2016-02-17T07:13:50.135Z,1027.37
2016-02-17T07:16:59.631Z,1027.49
2016-02-17T07:20:07.232Z,1027.39
2016-02-17T07:23:18.630Z,1027.16
2016-02-17T07:26:33.795Z,1027.23
2016-02-17T07:29:36.288Z,1026.96
2016-02-17T07:32:47.687Z,1026.92
2016-02-17T07:35:57.022Z,1026.94
2016-02-17T07:39:06.877Z,1026.76
2016-02-17T07:42:18.510Z,1026.3
2016-02-17T07:45:34.831Z,1026.1
2016-02-17T07:48:38.432Z,1025.74
2016-02-17T07:51:51.561Z,1025.9
2016-02-17T07:55:03.627Z,1025.54
2016-02-17T07:58:15.930Z,1025.46
2016-02-17T08:01:32.039Z,1025.34
2016-02-17T08:04:35.621Z,1025.17
2016-02-17T08:07:48.204Z,1024.87
2016-02-17T08:10:57.398Z,1025.09
2016-02-17T08:14:06.125Z,1025.19
2016-02-17T08:17:18.556Z,1024.83
2016-02-17T08:20:34.813Z,1024.65
2016-02-17T08:23:38.540Z,1024.37
2016-02-17T08:26:50.752Z,1023.95
2016-02-17T08:30:03.591Z,1023.16
2016-02-17T08:33:16.895Z,1022.92
2016-02-17T08:36:30.732Z,1023.1
2016-02-17T08:39:35.678Z,1022.82
2016-02-17T08:42:49.154Z,1022.4
2016-02-17T08:46:00.960Z,1022.24
2016-02-17T08:49:15.377Z,1022
2016-02-17T08:52:32.135Z,1022
2016-02-17T08:55:38.064Z,1022.04
2016-02-17T08:58:50.791Z,1021.77
2016-02-17T09:02:04.924Z,1021.89
2016-02-17T09:05:19.279Z,1021.67
2016-02-17T09:08:33.443Z,1021.75
2016-02-17T09:11:44.811Z,1021.94
2016-02-17T09:14:58.460Z,1022.26
2016-02-17T09:18:11.905Z,1021.79
2016-02-17T09:21:27.759Z,1021.57
2016-02-17T09:24:36.564Z,1021.41
2016-02-17T09:27:41.744Z,1021.27
2016-02-17T09:30:55.471Z,1021.21
2016-02-17T09:34:09.463Z,1021.05
2016-02-17T09:37:21.147Z,1021.13
2016-02-17T09:40:34.342Z,1021.11
2016-02-17T09:43:47.225Z,1021.07
2016-02-17T09:46:58.123Z,1021.03
2016-02-17T09:50:10.225Z,1021.03
2016-02-17T09:53:21.861Z,1021.35
2016-02-17T09:56:36.150Z,1021.83
2016-02-17T09:59:40.331Z,1022.14
2016-02-17T10:02:51.745Z,1022.1
2016-02-17T10:06:05.596Z,1022.1
2016-02-17T10:09:15.388Z,1022.22
2016-02-17T10:12:31.865Z,1022.08
2016-02-17T10:15:35.921Z,1022.02
2016-02-17T10:18:45.428Z,1022.16
2016-02-17T10:21:56.170Z,1022.06
2016-02-17T10:25:07.475Z,1022.16
2016-02-17T10:28:18.781Z,1021.98
2016-02-17T10:31:33.417Z,1022.16
2016-02-17T10:34:37.894Z,1021.92
2016-02-17T10:37:47.511Z,1021.81
2016-02-17T10:41:01.941Z,1021.67
2016-02-17T10:44:15.406Z,1021.67
2016-02-17T10:47:29.719Z,1021.73
2016-02-17T10:50:32.930Z,1021.73
2016-02-17T10:53:47.380Z,1021.53
2016-02-17T10:57:00.147Z,1021.45
2016-02-17T11:00:10.249Z,1021.29
2016-02-17T11:03:21.241Z,1021.13
2016-02-17T11:06:34.359Z,1020.93
2016-02-17T11:09:45.933Z,1020.97
2016-02-17T11:12:58.628Z,1020.87
2016-02-17T11:16:11.418Z,1020.87
2016-02-17T11:19:28.129Z,1020.75
2016-02-17T11:22:36.309Z,1020.63
2016-02-17T11:25:40.411Z,1020.55
2016-02-17T11:28:52.625Z,1020.45
2016-02-17T11:32:02.430Z,1020.35
2016-02-17T11:35:14.688Z,1020.33
2016-02-17T11:38:30.258Z,1020.06
2016-02-17T11:41:33.907Z,1019.84
2016-02-17T11:44:46.227Z,1019.86
2016-02-17T11:47:58.786Z,1019.76
2016-02-17T11:51:11.513Z,1019.84
2016-02-17T11:54:28.005Z,1019.82
2016-02-17T11:57:35.592Z,1019.64
2016-02-17T12:00:39.068Z,1019.5
2016-02-17T12:03:49.045Z,1019.38
2016-02-17T12:07:01.449Z,1019.36
2016-02-17T12:10:13.928Z,1019.3
2016-02-17T12:13:22.858Z,1019.22
2016-02-17T12:16:35.132Z,1018.96
2016-02-17T12:19:44.952Z,1019
2016-02-17T12:22:57.492Z,1018.86
2016-02-17T12:26:08.612Z,1018.62
2016-02-17T12:29:18.010Z,1018.58
2016-02-17T12:32:34.331Z,1018.56
2016-02-17T12:35:38.027Z,1018.36
2016-02-17T12:38:50.550Z,1018.48
2016-02-17T12:42:02.433Z,1018.34
2016-02-17T12:45:13.491Z,1018.21
2016-02-17T12:48:22.655Z,1018.11
2016-02-17T12:51:34.679Z,1018.21
2016-02-17T12:54:43.734Z,1017.97
2016-02-17T12:57:54.695Z,1017.67
2016-02-17T13:01:03.940Z,1017.79
2016-02-17T13:04:16.292Z,1017.87
2016-02-17T13:07:29.909Z,1017.63
2016-02-17T13:10:33.464Z,1017.57
2016-02-17T13:13:45.910Z,1017.53
2016-02-17T13:16:55.215Z,1017.53
2016-02-17T13:20:04.757Z,1017.25
2016-02-17T13:23:14.656Z,1017.25
2016-02-17T13:26:31.007Z,1017.07
2016-02-17T13:29:34.468Z,1016.82
2016-02-17T13:32:43.508Z,1016.78
2016-02-17T13:35:55.267Z,1016.83
2016-02-17T13:39:07.511Z,1016.52
2016-02-17T13:42:19.207Z,1016.62
2016-02-17T13:45:35.527Z,1016.44
2016-02-17T13:48:39.113Z,1016.38
2016-02-17T13:51:48.527Z,1016.26
2016-02-17T13:54:59.160Z,1016.12
2016-02-17T13:58:10.812Z,1016.2
2016-02-17T14:01:20.914Z,1016.14
2016-02-17T14:04:36.547Z,1016.3
2016-02-17T14:07:39.961Z,1015.96
2016-02-17T14:10:49.141Z,1015.84
2016-02-17T14:14:01.274Z,1016
2016-02-17T14:17:10.988Z,1015.82
2016-02-17T14:20:21.449Z,1015.76
2016-02-17T14:23:33.224Z,1015.7
2016-02-17T14:26:45.496Z,1015.72
2016-02-17T14:29:57.864Z,1015.76
2016-02-17T14:33:07.595Z,1015.7
2016-02-17T14:36:19.290Z,1015.52
2016-02-17T14:39:32.610Z,1015.62
2016-02-17T14:42:35.790Z,1015.58
2016-02-17T14:45:48.001Z,1015.44
2016-02-17T14:49:00.243Z,1015.64
2016-02-17T14:52:12.427Z,1015.38
2016-02-17T14:55:28.310Z,1015.3
2016-02-17T14:58:35.567Z,1015.32
2016-02-17T15:01:38.701Z,1015.24
2016-02-17T15:04:47.364Z,1015.22
2016-02-17T15:07:59.247Z,1015.16
2016-02-17T15:11:10.978Z,1015.1
2016-02-17T15:14:21.407Z,1015.1
2016-02-17T15:17:34.024Z,1015.08
2016-02-17T15:20:44.423Z,1014.98
2016-02-17T15:23:55.821Z,1015.04
2016-02-17T15:27:05.927Z,1015.08
2016-02-17T15:30:17.529Z,1015.18
2016-02-17T15:33:31.161Z,1015.12
2016-02-17T15:36:33.372Z,1015.04
2016-02-17T15:39:44.568Z,1015.28
2016-02-17T15:42:53.013Z,1014.91
2016-02-17T15:46:03.756Z,1014.91
2016-02-17T15:49:11.704Z,1014.94
2016-02-17T15:52:22.352Z,1014.79
2016-02-17T15:55:37.127Z,1014.71
2016-02-17T15:58:39.213Z,1014.61
2016-02-17T16:01:48.268Z,1014.51
2016-02-17T16:04:58.792Z,1014.41
2016-02-17T16:08:09.521Z,1014.39
2016-02-17T16:11:20.170Z,1014.19
2016-02-17T16:14:31.584Z,1014.21
2016-02-17T16:17:37.342Z,1014.21
2016-02-17T16:20:39.038Z,1014.15
2016-02-17T16:23:50.186Z,1014.03
2016-02-17T16:27:01.601Z,1013.97
2016-02-17T16:30:12.643Z,1013.85
2016-02-17T16:33:23.307Z,1013.87
2016-02-17T16:36:36.300Z,1013.89
2016-02-17T16:39:38.167Z,1013.77
2016-02-17T16:42:47.300Z,1013.79
2016-02-17T16:45:58.402Z,1013.79
2016-02-17T16:49:08.772Z,1013.75
2016-02-17T16:52:19.874Z,1013.69
2016-02-17T16:55:34.676Z,1013.65
2016-02-17T16:58:36.882Z,1013.55
2016-02-17T17:01:47.254Z,1013.67
2016-02-17T17:04:55.155Z,1013.51
2016-02-17T17:08:04.438Z,1013.39
2016-02-17T17:11:12.381Z,1013.35
2016-02-17T17:14:27.526Z,1013.33
2016-02-17T17:17:33.768Z,1013.25
2016-02-17T17:20:35.931Z,1013.09
2016-02-17T17:23:47.439Z,1013.09
2016-02-17T17:26:58.682Z,1013.06
2016-02-17T17:30:10.552Z,1013.06
2016-02-17T17:33:21.169Z,1012.94
2016-02-17T17:36:36.521Z,1012.96
2016-02-17T17:39:38.951Z,1012.84
2016-02-17T17:42:47.553Z,1012.72
2016-02-17T17:45:58.546Z,1012.78
2016-02-17T17:49:09.416Z,1012.72
2016-02-17T17:52:18.126Z,1012.76
2016-02-17T17:55:34.401Z,1012.7
2016-02-17T17:58:35.690Z,1012.62
2016-02-17T18:01:46.995Z,1012.56
2016-02-17T18:04:55.986Z,1012.4
2016-02-17T18:08:07.260Z,1012.28
2016-02-17T18:11:15.397Z,1012.3
2016-02-17T18:14:30.888Z,1012.28
2016-02-17T18:17:36.928Z,1012.18
2016-02-17T18:20:39.092Z,1012.14
2016-02-17T18:23:48.429Z,1012.08
2016-02-17T18:26:57.671Z,1012.1
2016-02-17T18:30:08.916Z,1011.94
2016-02-17T18:33:17.736Z,1011.98
2016-02-17T18:36:30.463Z,1011.94
2016-02-17T18:39:36.722Z,1011.8
2016-02-17T18:42:39.105Z,1011.8
2016-02-17T18:45:50.488Z,1011.72
2016-02-17T18:49:01.902Z,1011.72
2016-02-17T18:52:10.726Z,1011.61
2016-02-17T18:55:21.765Z,1011.51
2016-02-17T18:58:37.304Z,1011.53
2016-02-17T19:01:39.469Z,1011.49
2016-02-17T19:04:49.068Z,1011.49
2016-02-17T19:07:57.358Z,1011.53
2016-02-17T19:11:05.100Z,1011.39
2016-02-17T19:14:16.048Z,1011.45
2016-02-17T19:17:30.994Z,1011.31
2016-02-17T19:20:37.096Z,1011.17
2016-02-17T19:23:39.432Z,1011.21
2016-02-17T19:26:50.785Z,1011.15
2016-02-17T19:30:01.448Z,1011.09
2016-02-17T19:33:09.723Z,1010.99
2016-02-17T19:36:21.217Z,1011.01
2016-02-17T19:39:36.678Z,1011.01
2016-02-17T19:42:39.092Z,1010.95
2016-02-17T19:45:47.803Z,1010.89
2016-02-17T19:48:57.405Z,1010.83
2016-02-17T19:52:07.991Z,1010.83
2016-02-17T19:55:16.096Z,1010.79
2016-02-17T19:58:31.467Z,1010.75
2016-02-17T20:01:33.882Z,1010.81
2016-02-17T20:04:45.233Z,1010.83
2016-02-17T20:07:53.898Z,1010.71
2016-02-17T20:11:05.219Z,1010.63
2016-02-17T20:14:16.496Z,1010.59
2016-02-17T20:17:28.722Z,1010.45
2016-02-17T20:20:34.933Z,1010.43
2016-02-17T20:23:37.176Z,1010.39
2016-02-17T20:26:48.341Z,1010.29
2016-02-17T20:29:57.912Z,1010.31
2016-02-17T20:33:09.357Z,1010.27
2016-02-17T20:36:17.431Z,1010.17
2016-02-17T20:39:29.220Z,1010.15
2016-02-17T20:42:36.368Z,1010.07
2016-02-17T20:45:37.735Z,1010.03
2016-02-17T20:48:45.493Z,1009.97
2016-02-17T20:51:53.704Z,1009.95
2016-02-17T20:55:04.634Z,1009.93
2016-02-17T20:58:15.957Z,1009.95
2016-02-17T21:01:31.060Z,1009.91
2016-02-17T21:04:33.583Z,1009.87
2016-02-17T21:07:44.748Z,1009.91
2016-02-17T21:10:56.005Z,1010.01
2016-02-17T21:14:07.405Z,1009.85
2016-02-17T21:17:16.102Z,1009.93
2016-02-17T21:20:31.391Z,1009.78
2016-02-17T21:23:33.822Z,1009.78
2016-02-17T21:26:42.158Z,1009.82
2016-02-17T21:29:50.932Z,1009.78
2016-02-17T21:33:02.190Z,1009.78
2016-02-17T21:36:13.451Z,1009.72
2016-02-17T21:39:21.506Z,1009.68
2016-02-17T21:42:34.295Z,1009.68
2016-02-17T21:45:36.647Z,1009.7
2016-02-17T21:48:45.935Z,1009.72
2016-02-17T21:51:56.882Z,1009.72
2016-02-17T21:55:05.546Z,1009.62
2016-02-17T21:58:16.979Z,1009.64
2016-02-17T22:01:30.065Z,1009.5
2016-02-17T22:04:36.307Z,1009.48
2016-02-17T22:07:38.674Z,1009.52
2016-02-17T22:10:50.323Z,1009.68
2016-02-17T22:14:00.519Z,1009.52
2016-02-17T22:17:11.667Z,1009.58
2016-02-17T22:20:22.897Z,1009.58
2016-02-17T22:23:33.874Z,1009.4
2016-02-17T22:26:43.147Z,1009.4
2016-02-17T22:29:53.952Z,1009.52
2016-02-17T22:33:04.929Z,1009.36
2016-02-17T22:36:16.018Z,1009.48
2016-02-17T22:39:31.104Z,1009.46
2016-02-17T22:42:37.347Z,1009.54
2016-02-17T22:45:39.698Z,1009.5
2016-02-17T22:48:49.054Z,1009.56
2016-02-17T22:51:58.094Z,1009.54
2016-02-17T22:55:09.462Z,1009.42
2016-02-17T22:58:20.503Z,1009.48
2016-02-17T23:01:35.261Z,1009.38
2016-02-17T23:04:37.660Z,1009.32
2016-02-17T23:07:45.449Z,1009.4
2016-02-17T23:10:56.301Z,1009.44
2016-02-17T23:14:07.184Z,1009.4
2016-02-17T23:17:18.648Z,1009.26
2016-02-17T23:20:33.719Z,1009.22
2016-02-17T23:23:36.679Z,1009.34
2016-02-17T23:26:45.578Z,1009.34
2016-02-17T23:29:55.445Z,1009.34
2016-02-17T23:33:05.922Z,1009.36
2016-02-17T23:36:18.558Z,1009.34
2016-02-17T23:39:34.113Z,1009.18
2016-02-17T23:42:36.902Z,1009.36
2016-02-17T23:45:48.363Z,1009.48
2016-02-17T23:48:59.857Z,1009.18
2016-02-17T23:52:09.490Z,1009.4
2016-02-17T23:55:19.672Z,1009.36
2016-02-17T23:58:36.367Z,1009.4
